Time;durP1;ratioP1;P1;durP2;ratioP2;P2;SDS_P1;SDS_P2;PMS_P1;PMS_P2;Temp;Humidity;BMP_temperature;BMP_pressure;BME280_temperature;BME280_humidity;BME280_pressure;Samples;Min_cycle;Max_cycle;Signal;HPM_P1;HPM_P2
2022/01/26 00:06:34;;;;;;;89.45;44.05;;;;;;;-11.42;94.65;93853.28;4971445;28;20182;-82
2022/01/26 00:09:04;;;;;;;86.57;41.30;;;;;;;-11.55;94.43;93828.19;4971269;28;20050;-82
2022/01/26 00:11:31;;;;;;;96.10;42.45;;;;;;;-11.48;93.25;93848.56;4970942;28;20057;-82
2022/01/26 00:14:00;;;;;;;90.53;40.90;;;;;;;-11.45;92.95;93857.53;4971135;28;20172;-80
2022/01/26 00:16:34;;;;;;;94.35;41.90;;;;;;;-11.99;94.72;93774.53;4971101;28;20051;-80
2022/01/26 00:19:02;;;;;;;93.88;47.95;;;;;;;-11.62;94.90;93854.06;4970834;28;20051;-83
2022/01/26 00:21:35;;;;;;;79.38;39.72;;;;;;;-11.96;96.50;93786.81;4970620;28;20798;-83
2022/01/26 00:27:24;;;;;;;96.32;44.60;;;;;;;-11.41;95.93;93827.63;4970860;28;20055;-82
2022/01/26 00:30:01;;;;;;;111.93;50.53;;;;;;;-11.30;96.15;93836.31;4970956;28;20047;-82
2022/01/26 00:40:51;;;;;;;226.55;78.35;;;;;;;-11.27;94.65;93824.59;4970938;28;20062;-82
2022/01/26 00:43:23;;;;;;;315.33;94.00;;;;;;;-11.54;94.46;93785.16;4970619;28;20051;-81
2022/01/26 00:45:55;;;;;;;320.58;93.65;;;;;;;-11.17;95.14;93839.88;4970459;28;20134;-81
2022/01/26 00:48:22;;;;;;;199.43;72.85;;;;;;;-11.17;94.88;93829.97;4971165;28;20101;-80
2022/01/26 00:50:53;;;;;;;122.40;44.75;;;;;;;-11.41;94.68;93795.38;4970857;28;20061;-80
2022/01/26 00:53:23;;;;;;;92.90;41.03;;;;;;;-11.24;94.76;93816.22;4970929;28;20047;-80
2022/01/26 00:56:12;;;;;;;80.63;37.72;;;;;;;-11.44;95.22;93797.97;4970400;28;20514;-81
2022/01/26 00:58:39;;;;;;;73.28;37.20;;;;;;;-11.21;95.17;93822.72;4970749;28;20061;-81
2022/01/26 01:01:07;;;;;;;76.10;37.17;;;;;;;-11.09;95.28;93826.34;4971065;28;20566;-80
2022/01/26 01:03:36;;;;;;;72.28;38.47;;;;;;;-11.04;95.29;93825.31;4971246;28;20138;-80
2022/01/26 01:06:09;;;;;;;74.75;40.13;;;;;;;-10.96;94.82;93826.66;4971324;28;20523;-78
2022/01/26 01:08:38;;;;;;;67.85;36.55;;;;;;;-10.93;94.71;93819.88;4970704;28;20101;-78
2022/01/26 01:11:05;;;;;;;73.32;39.05;;;;;;;-10.91;94.88;93824.78;4970712;28;20055;-78
2022/01/26 01:13:36;;;;;;;57.38;30.67;;;;;;;-10.90;94.48;93809.81;4970220;28;20054;-78
2022/01/26 01:16:04;;;;;;;46.45;26.73;;;;;;;-11.06;94.06;93784.84;4962359;28;20065;-80
2022/01/26 01:18:40;;;;;;;37.60;19.77;;;;;;;-10.93;93.95;93794.28;4951304;29;20073;-79
2022/01/26 01:24:20;;;;;;;28.75;18.05;;;;;;;-10.76;94.05;93810.91;4911720;29;20522;-78
2022/01/26 01:27:03;;;;;;;30.63;17.42;;;;;;;-10.91;94.13;93787.56;4951170;29;20058;-80
2022/01/26 01:29:37;;;;;;;26.58;15.30;;;;;;;-10.78;94.38;93810.97;4950916;29;20053;-79
2022/01/26 01:32:12;;;;;;;25.42;13.98;;;;;;;-10.73;94.38;93806.59;4951007;29;20099;-80
2022/01/26 01:34:39;;;;;;;33.35;17.27;;;;;;;-10.82;94.56;93784.69;4951062;29;20058;-82
2022/01/26 01:37:08;;;;;;;32.25;18.85;;;;;;;-10.68;94.45;93801.47;4954188;28;20944;-80
2022/01/26 01:39:37;;;;;;;28.52;16.25;;;;;;;-10.69;94.15;93804.81;4954989;28;20070;-80
2022/01/26 01:42:06;;;;;;;32.58;16.63;;;;;;;-10.66;95.22;93791.47;4954971;29;20051;-80
2022/01/26 01:44:35;;;;;;;36.53;19.80;;;;;;;-10.84;95.30;93773.22;4954701;29;20051;-80
2022/01/26 01:47:02;;;;;;;36.72;19.77;;;;;;;-11.05;96.16;93798.88;4954658;29;20083;-80
2022/01/26 01:49:29;;;;;;;31.08;17.30;;;;;;;-10.83;96.91;93797.97;4954434;29;20052;-80
2022/01/26 01:52:00;;;;;;;41.28;23.55;;;;;;;-10.92;97.57;93764.41;4954721;29;20044;-81
2022/01/26 01:54:27;;;;;;;46.60;25.65;;;;;;;-11.51;97.62;93674.34;4954571;29;20147;-81
2022/01/26 01:56:56;;;;;;;56.85;31.35;;;;;;;-10.58;97.59;93786.97;4953175;29;20046;-81
2022/01/26 01:59:24;;;;;;;64.38;35.22;;;;;;;-11.00;99.18;93791.22;4953757;28;20048;-80
2022/01/26 02:01:54;;;;;;;70.35;37.15;;;;;;;-10.89;99.68;93753.53;4953773;29;20594;-80
2022/01/26 02:04:20;;;;;;;65.97;38.38;;;;;;;-10.63;99.84;93778.91;4953777;29;20053;-79
2022/01/26 02:06:47;;;;;;;72.68;37.80;;;;;;;-10.58;99.43;93768.75;4954033;29;20059;-81
2022/01/26 02:09:14;;;;;;;82.55;42.13;;;;;;;-10.50;99.19;93771.72;4953742;29;20059;-79
2022/01/26 02:11:46;;;;;;;71.63;38.05;;;;;;;-10.56;99.36;93754.63;4953958;29;20051;-79
2022/01/26 02:14:19;;;;;;;68.15;38.45;;;;;;;-10.30;98.98;93775.75;4953593;29;20040;-80
2022/01/26 02:16:51;;;;;;;65.45;36.00;;;;;;;-10.56;99.24;93760.38;4967125;28;20061;-80
2022/01/26 02:50:17;;;;;;;87.47;46.50;;;;;;;-9.84;98.74;93770.34;4953753;29;20122;-79
2022/01/26 02:52:57;;;;;;;77.30;41.50;;;;;;;-9.74;97.75;93768.22;4953463;29;20520;-79
2022/01/26 02:55:39;;;;;;;65.00;36.10;;;;;;;-9.75;98.02;93766.59;4953679;29;20411;-79
2022/01/26 03:01:01;;;;;;;69.15;37.00;;;;;;;-9.60;98.26;93770.03;4951839;28;20099;-79
2022/01/26 03:03:33;;;;;;;66.68;36.30;;;;;;;-9.68;97.66;93743.03;4953321;29;20416;-80
2022/01/26 03:06:04;;;;;;;67.85;36.35;;;;;;;-9.90;98.69;93727.56;4953506;29;20047;-80
2022/01/26 03:08:34;;;;;;;67.15;36.13;;;;;;;-9.56;99.12;93758.25;4952994;29;20054;-80
2022/01/26 03:11:07;;;;;;;61.97;35.80;;;;;;;-9.47;98.55;93759.47;4953604;29;20139;-80
2022/01/26 03:13:37;;;;;;;64.05;35.05;;;;;;;-9.71;98.70;93720.84;4953868;29;20051;-79
2022/01/26 03:16:10;;;;;;;69.85;37.83;;;;;;;-9.46;98.37;93754.44;4953087;28;20051;-79
2022/01/26 03:21:34;;;;;;;66.82;34.63;;;;;;;-9.47;98.02;93723.00;4942352;29;20051;-81
2022/01/26 03:29:53;;;;;;;78.30;41.03;;;;;;;-9.79;100.00;93757.69;4952696;29;20061;-81
2022/01/26 03:35:15;;;;;;;81.72;39.45;;;;;;;-10.26;100.00;93742.44;4953043;29;20054;-84
2022/01/26 03:37:53;;;;;;;81.90;40.88;;;;;;;-9.82;100.00;93750.38;4952627;29;20058;-82
2022/01/26 03:40:28;;;;;;;82.80;41.10;;;;;;;-9.83;100.00;93744.59;4952858;29;20058;-80
2022/01/26 03:42:57;;;;;;;91.88;42.63;;;;;;;-9.91;100.00;93748.31;4952478;29;20062;-80
2022/01/26 03:45:27;;;;;;;79.25;40.38;;;;;;;-9.94;100.00;93730.22;4952556;29;20499;-81
2022/01/26 03:47:55;;;;;;;84.68;44.67;;;;;;;-9.70;100.00;93747.31;4952738;29;20419;-80
2022/01/26 03:50:22;;;;;;;91.93;46.50;;;;;;;-9.74;100.00;93740.88;4952946;29;20161;-82
2022/01/26 03:52:49;;;;;;;89.25;46.83;;;;;;;-9.95;100.00;93728.56;4952288;29;20047;-79
2022/01/26 03:55:15;;;;;;;95.82;46.17;;;;;;;-9.58;100.00;93753.34;4952249;29;20051;-80
2022/01/26 03:57:42;;;;;;;93.05;47.72;;;;;;;-9.47;100.00;93754.50;4952594;29;20055;-79
2022/01/26 04:00:12;;;;;;;84.15;45.40;;;;;;;-9.64;100.00;93708.88;4951417;28;20051;-80
2022/01/26 04:02:39;;;;;;;86.03;46.72;;;;;;;-9.22;100.00;93745.84;4952219;29;20571;-80
2022/01/26 04:05:10;;;;;;;90.43;46.17;;;;;;;-9.55;100.00;93692.72;4952184;29;20048;-80
2022/01/26 04:07:37;;;;;;;89.53;49.38;;;;;;;-9.36;100.00;93702.53;4952368;29;20051;-82
2022/01/26 04:10:13;;;;;;;104.53;56.00;;;;;;;-9.06;100.00;93741.69;4952953;29;20110;-81
2022/01/26 04:12:40;;;;;;;98.82;50.03;;;;;;;-9.02;100.00;93740.66;4952579;29;20058;-82
2022/01/26 04:15:17;;;;;;;99.70;50.17;;;;;;;-9.27;100.00;93691.31;4952347;28;20562;-81
2022/01/26 04:17:45;;;;;;;117.25;58.10;;;;;;;-8.81;100.00;93747.13;4952288;29;20058;-83
2022/01/26 04:20:12;;;;;;;125.00;65.32;;;;;;;-8.76;99.41;93747.66;4951707;29;20142;-83
2022/01/26 04:22:50;;;;;;;142.57;71.53;;;;;;;-9.10;99.31;93692.97;4951958;29;20051;-82
2022/01/26 04:25:21;;;;;;;181.35;84.00;;;;;;;-9.15;98.78;93667.50;4952042;29;20047;-82
2022/01/26 04:27:51;;;;;;;177.98;85.38;;;;;;;-8.79;99.13;93718.78;4951925;28;20077;-82
2022/01/26 04:30:18;;;;;;;158.40;76.00;;;;;;;-8.65;99.01;93733.00;4951769;29;20058;-82
2022/01/26 04:32:47;;;;;;;171.60;81.88;;;;;;;-8.90;98.67;93696.91;4951732;29;20062;-81
2022/01/26 04:35:13;;;;;;;162.18;78.45;;;;;;;-8.73;99.17;93713.47;4951760;29;20405;-82
2022/01/26 04:38:01;;;;;;;162.05;73.88;;;;;;;-8.86;99.31;93693.38;4952002;28;20061;-80
2022/01/26 04:40:35;;;;;;;143.85;68.43;;;;;;;-8.59;99.80;93726.88;4951614;29;20047;-80
2022/01/26 04:43:06;;;;;;;139.38;69.38;;;;;;;-8.50;99.48;93728.03;4951741;29;20058;-80
2022/01/26 04:45:32;;;;;;;145.88;71.22;;;;;;;-8.43;99.24;93731.78;4951729;29;20129;-81
2022/01/26 04:48:01;;;;;;;146.55;70.50;;;;;;;-8.43;99.11;93731.78;4951085;29;20491;-80
2022/01/26 04:50:28;;;;;;;146.40;72.00;;;;;;;-8.53;100.00;93733.22;4950967;29;20043;-80
2022/01/26 04:52:55;;;;;;;146.65;72.78;;;;;;;-8.53;100.00;93716.56;4951577;28;20053;-82
2022/01/26 04:55:22;;;;;;;141.48;68.75;;;;;;;-8.99;100.00;93663.34;4951214;29;20055;-82
2022/01/26 04:57:49;;;;;;;149.90;74.45;;;;;;;-8.55;100.00;93732.47;4951047;29;20529;-82
2022/01/26 05:00:16;;;;;;;144.07;75.88;;;;;;;-8.95;100.00;93668.94;4951265;29;20059;-82
2022/01/26 05:02:43;;;;;;;146.65;70.70;;;;;;;-8.56;100.00;93703.47;4951479;29;20055;-82
2022/01/26 05:05:12;;;;;;;140.52;69.57;;;;;;;-8.30;100.00;93736.94;4950847;29;20578;-81
2022/01/26 05:07:39;;;;;;;153.27;76.15;;;;;;;-8.46;100.00;93730.28;4951426;29;20053;-81
2022/01/26 05:10:07;;;;;;;146.30;74.32;;;;;;;-8.41;100.00;93729.22;4950829;29;20043;-80
2022/01/26 05:12:35;;;;;;;143.52;69.15;;;;;;;-8.54;100.00;93695.03;4951256;29;20043;-80
2022/01/26 05:15:02;;;;;;;166.50;82.35;;;;;;;-8.24;100.00;93736.59;4951204;28;20051;-81
2022/01/26 05:17:28;;;;;;;190.02;92.95;;;;;;;-8.27;100.00;93723.50;4951091;29;20126;-81
2022/01/26 05:19:59;;;;;;;192.00;94.90;;;;;;;-8.38;100.00;93721.59;4951446;29;20392;-80
2022/01/26 05:22:29;;;;;;;164.98;82.47;;;;;;;-8.37;100.00;93724.03;4951315;29;20066;-81
2022/01/26 05:24:56;;;;;;;156.38;78.68;;;;;;;-8.36;100.00;93707.38;4950959;29;20407;-81
2022/01/26 05:27:23;;;;;;;170.45;82.28;;;;;;;-8.41;100.00;93721.75;4950948;29;20058;-81
2022/01/26 05:29:50;;;;;;;163.07;80.10;;;;;;;-8.20;100.00;93737.25;4951245;29;20047;-81
2022/01/26 05:32:16;;;;;;;151.40;76.53;;;;;;;-9.05;100.00;93620.53;4951832;29;20059;-81
2022/01/26 05:34:43;;;;;;;168.35;87.20;;;;;;;-8.27;100.00;93733.47;4951772;29;20047;-81
2022/01/26 05:37:10;;;;;;;168.55;82.35;;;;;;;-8.24;100.00;93744.06;4951116;28;20065;-81
2022/01/26 05:39:39;;;;;;;269.85;124.97;;;;;;;-8.61;100.00;93709.50;4950782;29;20058;-81
2022/01/26 05:42:07;;;;;;;223.73;105.57;;;;;;;-8.42;100.00;93740.09;4950749;29;20086;-81
2022/01/26 05:44:34;;;;;;;381.13;163.85;;;;;;;-8.36;100.00;93735.59;4950992;29;20051;-81
2022/01/26 05:47:02;;;;;;;229.38;99.68;;;;;;;-8.34;100.00;93731.31;4951015;29;20471;-81
2022/01/26 05:49:29;;;;;;;208.30;94.55;;;;;;;-8.26;100.00;93735.88;4951478;29;20051;-81
2022/01/26 05:51:56;;;;;;;168.98;79.60;;;;;;;-8.27;100.00;93738.47;4951555;29;20055;-81
2022/01/26 05:54:23;;;;;;;167.80;76.47;;;;;;;-8.38;100.00;93737.34;4950723;29;20052;-81
2022/01/26 05:56:51;;;;;;;173.60;77.70;;;;;;;-8.37;100.00;93736.47;4950770;29;20063;-80
2022/01/26 05:59:20;;;;;;;162.27;68.38;;;;;;;-8.22;100.00;93731.53;4951147;29;20526;-80
2022/01/26 06:01:47;;;;;;;166.70;74.30;;;;;;;-8.23;100.00;93733.25;4950674;29;20106;-80
2022/01/26 06:04:14;;;;;;;159.25;68.72;;;;;;;-8.09;100.00;93724.19;4950534;29;20480;-81
2022/01/26 06:06:41;;;;;;;156.50;72.60;;;;;;;-8.53;100.00;93651.03;4950625;29;20571;-81
2022/01/26 06:09:08;;;;;;;168.40;75.85;;;;;;;-8.07;100.00;93734.88;4950384;29;20411;-80
2022/01/26 06:11:35;;;;;;;164.50;76.18;;;;;;;-8.11;100.00;93731.75;4950860;29;20076;-81
2022/01/26 06:14:04;;;;;;;148.18;67.95;;;;;;;-8.05;100.00;93733.13;4950483;29;20049;-81
2022/01/26 06:16:31;;;;;;;161.60;68.97;;;;;;;-7.98;100.00;93734.38;4950394;28;20055;-81
2022/01/26 06:18:58;;;;;;;162.70;76.07;;;;;;;-8.12;100.00;93730.16;4950775;29;20077;-80
2022/01/26 06:21:24;;;;;;;155.10;70.70;;;;;;;-8.51;100.00;93657.50;4950549;28;20515;-82
2022/01/26 06:23:51;;;;;;;159.45;77.65;;;;;;;-8.16;100.00;93693.03;4953288;29;20062;-82
2022/01/26 06:26:18;;;;;;;165.07;77.35;;;;;;;-7.75;100.00;93731.50;4954154;29;20059;-84
2022/01/26 06:28:45;;;;;;;157.23;73.47;;;;;;;-7.86;100.00;93704.66;4961635;28;20047;-82
2022/01/26 06:31:15;;;;;;;158.02;71.03;;;;;;;-7.84;100.00;93703.69;4990946;28;20093;-81
2022/01/26 06:33:43;;;;;;;164.70;73.30;;;;;;;-7.69;100.00;93734.44;4992571;28;20112;-81
2022/01/26 06:36:13;;;;;;;150.23;65.95;;;;;;;-7.63;100.00;93733.31;4992225;28;20058;-81
2022/01/26 06:38:40;;;;;;;143.75;71.05;;;;;;;-8.15;100.00;93627.31;4992513;28;20082;-81
2022/01/26 06:41:07;;;;;;;152.30;72.03;;;;;;;-7.42;100.00;93735.47;4992356;28;20058;-81
2022/01/26 06:43:35;;;;;;;149.15;68.30;;;;;;;-7.35;100.00;93736.75;4992244;28;20060;-81
2022/01/26 06:46:04;;;;;;;160.63;74.18;;;;;;;-7.28;100.00;93737.97;4992161;28;20532;-81
2022/01/26 06:48:46;;;;;;;187.95;94.13;;;;;;;-7.49;100.00;93727.53;4992544;28;20046;-81
2022/01/26 06:51:14;;;;;;;220.55;92.03;;;;;;;-7.51;100.00;93719.31;4992258;28;20078;-81
2022/01/26 06:53:41;;;;;;;235.88;98.55;;;;;;;-7.30;100.00;93731.47;4992284;28;20571;-81
2022/01/26 06:56:08;;;;;;;192.52;80.53;;;;;;;-7.62;100.00;93686.69;4991839;28;20050;-83
2022/01/26 06:58:35;;;;;;;193.45;87.65;;;;;;;-7.19;100.00;93728.38;4991949;28;20149;-81
2022/01/26 07:01:02;;;;;;;182.25;82.72;;;;;;;-7.29;100.00;93698.94;4991976;28;20050;-82
2022/01/26 07:03:29;;;;;;;190.48;90.05;;;;;;;-7.32;100.00;93698.31;4991799;28;20054;-82
2022/01/26 07:05:57;;;;;;;250.93;104.40;;;;;;;-6.87;100.00;93746.44;4992452;28;20050;-82
2022/01/26 07:08:24;;;;;;;226.63;100.82;;;;;;;-7.43;100.00;93654.81;4992383;28;20050;-82
2022/01/26 07:10:53;;;;;;;191.40;83.35;;;;;;;-6.81;100.00;93744.50;4992068;28;20498;-82
2022/01/26 07:13:20;;;;;;;257.60;115.78;;;;;;;-6.89;100.00;93710.75;4992692;28;20458;-82
2022/01/26 07:24:03;;;;;;;155.77;75.82;;;;;;;-6.87;100.00;93665.72;4986253;28;20498;-82
2022/01/26 07:26:30;;;;;;;135.30;65.70;;;;;;;-6.95;100.00;93657.91;4991532;28;20142;-82
2022/01/26 07:28:58;;;;;;;121.55;54.28;;;;;;;-6.31;100.00;93740.63;4988329;28;20046;-80
2022/01/26 07:31:25;;;;;;;145.25;73.40;;;;;;;-6.25;100.00;93746.94;4990401;28;20502;-80
2022/01/26 07:33:54;;;;;;;164.85;81.53;;;;;;;-6.17;100.00;93744.78;4991388;28;20050;-81
2022/01/26 07:36:24;;;;;;;262.40;129.45;;;;;;;-6.11;100.00;93748.59;4991811;28;20137;-81
2022/01/26 07:38:53;;;;;;;316.17;159.05;;;;;;;-6.02;100.00;93748.94;4991172;28;20054;-82
2022/01/26 07:41:20;;;;;;;398.88;208.90;;;;;;;-5.93;100.00;93745.84;4991127;28;20054;-81
2022/01/26 07:43:47;;;;;;;435.35;222.93;;;;;;;-5.87;100.00;93740.44;4990969;28;20057;-82
2022/01/26 07:46:14;;;;;;;429.13;215.00;;;;;;;-5.87;100.00;93740.44;4991144;28;20053;-81
2022/01/26 07:48:41;;;;;;;424.38;213.02;;;;;;;-5.95;100.00;93718.41;4991170;28;20051;-81
2022/01/26 07:51:08;;;;;;;457.75;241.75;;;;;;;-5.69;100.00;93745.19;4991169;28;20054;-82
2022/01/26 07:53:37;;;;;;;423.58;219.85;;;;;;;-5.58;100.00;93746.97;4991686;28;20046;-81
2022/01/26 07:56:04;;;;;;;280.75;118.88;;;;;;;-5.65;100.00;93749.09;4991653;28;20502;-82
2022/01/26 07:58:31;;;;;;;112.40;50.80;;;;;;;-5.53;100.00;93750.00;4991412;28;20048;-81
2022/01/26 08:00:57;;;;;;;288.08;137.95;;;;;;;-5.56;100.00;93740.97;4991721;28;20053;-81
2022/01/26 08:03:25;;;;;;;140.02;69.70;;;;;;;-5.75;100.00;93725.56;4991740;28;20057;-81
2022/01/26 08:05:52;;;;;;;245.57;130.68;;;;;;;-5.68;100.00;93714.25;4990611;28;20074;-81
2022/01/26 08:08:19;;;;;;;277.13;138.80;;;;;;;-5.37;100.00;93744.81;4991015;28;20058;-80
2022/01/26 08:10:49;;;;;;;214.85;105.90;;;;;;;-5.68;100.00;93685.03;4990964;28;20129;-82
2022/01/26 08:13:16;;;;;;;165.80;84.20;;;;;;;-5.18;100.00;93751.13;4991066;28;20149;-81
2022/01/26 08:15:43;;;;;;;74.50;37.38;;;;;;;-5.23;100.00;93749.72;4990474;28;20061;-81
2022/01/26 08:18:09;;;;;;;57.58;29.35;;;;;;;-5.60;100.00;93697.00;4990519;28;20513;-81
2022/01/26 08:20:36;;;;;;;69.35;36.70;;;;;;;-5.30;100.00;93725.16;4991340;28;20050;-82
2022/01/26 08:23:03;;;;;;;37.22;19.45;;;;;;;-5.12;100.00;93754.03;4991170;28;20421;-81
2022/01/26 08:25:30;;;;;;;38.25;20.25;;;;;;;-5.23;100.00;93747.22;4990851;28;20082;-81
2022/01/26 08:28:05;;;;;;;38.28;20.35;;;;;;;-5.24;100.00;93758.13;4991185;28;20103;-80
2022/01/26 08:30:36;;;;;;;35.05;16.67;;;;;;;-5.37;100.00;93744.81;4990366;28;20042;-80
2022/01/26 08:33:03;;;;;;;40.67;21.80;;;;;;;-5.19;100.00;93755.31;4990567;28;20046;-80
2022/01/26 08:35:30;;;;;;;42.47;20.85;;;;;;;-5.43;100.00;93717.66;4990099;28;20105;-82
2022/01/26 08:37:57;;;;;;;39.83;19.02;;;;;;;-4.96;100.00;93761.34;4990547;28;20430;-80
2022/01/26 08:40:24;;;;;;;38.67;21.05;;;;;;;-5.13;100.00;93729.09;4990425;28;20177;-80
2022/01/26 08:42:51;;;;;;;41.95;19.77;;;;;;;-5.02;100.00;93738.38;4990059;28;20078;-80
2022/01/26 08:45:19;;;;;;;46.00;23.30;;;;;;;-4.82;100.00;93754.59;4989785;28;20045;-80
2022/01/26 08:47:47;;;;;;;42.15;21.85;;;;;;;-4.79;100.00;93761.09;4990309;28;20066;-80
2022/01/26 08:50:14;;;;;;;38.03;20.05;;;;;;;-4.80;100.00;93752.81;4990068;28;20054;-80
2022/01/26 08:52:41;;;;;;;39.15;19.95;;;;;;;-4.90;100.00;93760.13;4989914;28;20061;-80
2022/01/26 08:55:10;;;;;;;28.65;12.10;;;;;;;-5.00;100.00;93764.16;4989967;28;20099;-80
2022/01/26 08:57:36;;;;;;;33.72;19.67;;;;;;;-5.27;100.00;93732.50;4989856;28;20082;-80
2022/01/26 09:00:05;;;;;;;31.80;15.15;;;;;;;-5.29;100.00;93740.09;4990233;28;20046;-80
2022/01/26 09:02:33;;;;;;;43.72;22.20;;;;;;;-5.18;100.00;93761.16;4990425;28;20053;-80
2022/01/26 09:05:00;;;;;;;38.63;18.98;;;;;;;-5.19;100.00;93765.34;4989897;28;20051;-80
2022/01/26 09:07:27;;;;;;;33.40;16.42;;;;;;;-5.05;100.00;93758.63;4989924;28;20062;-79
2022/01/26 09:09:55;;;;;;;36.67;18.42;;;;;;;-5.21;100.00;93748.81;4989875;28;20516;-80
2022/01/26 09:12:24;;;;;;;27.13;15.73;;;;;;;-5.29;100.00;93742.59;4989815;28;20086;-80
2022/01/26 09:14:52;;;;;;;30.13;15.77;;;;;;;-4.89;100.00;93751.72;4990172;28;20058;-80
2022/01/26 09:17:20;;;;;;;28.38;13.80;;;;;;;-4.81;100.00;93757.91;4990057;28;20061;-80
2022/01/26 09:19:49;;;;;;;25.10;14.20;;;;;;;-4.92;100.00;93761.16;4989962;28;20053;-80
2022/01/26 09:22:18;;;;;;;32.10;16.33;;;;;;;-4.91;100.00;93745.97;4989756;28;20057;-80
2022/01/26 09:24:45;;;;;;;43.55;23.55;;;;;;;-4.64;100.00;93760.09;4989612;28;20146;-80
2022/01/26 09:27:16;;;;;;;32.70;19.92;;;;;;;-4.52;100.00;93757.66;4989658;28;20061;-80
2022/01/26 09:29:44;;;;;;;46.50;24.98;;;;;;;-4.45;100.00;93747.09;4989859;28;20134;-80
2022/01/26 09:32:11;;;;;;;28.08;17.30;;;;;;;-4.62;100.00;93728.22;4989488;28;20046;-80
2022/01/26 09:34:39;;;;;;;23.90;13.88;;;;;;;-4.37;100.00;93759.13;4989741;28;20405;-80
2022/01/26 09:37:09;;;;;;;27.17;15.25;;;;;;;-4.50;100.00;93718.25;4990174;28;20117;-80
2022/01/26 09:39:38;;;;;;;31.80;17.58;;;;;;;-4.23;100.00;93747.31;4989823;28;20050;-80
2022/01/26 09:42:09;;;;;;;33.90;17.88;;;;;;;-4.60;100.00;93665.41;4989528;28;20047;-81
2022/01/26 09:44:36;;;;;;;43.95;24.83;;;;;;;-3.97;100.00;93753.06;4990254;28;20046;-80
2022/01/26 09:47:03;;;;;;;25.55;15.15;;;;;;;-3.93;100.00;93749.41;4990058;28;20053;-80
2022/01/26 09:49:32;;;;;;;38.17;19.60;;;;;;;-3.96;100.00;93742.09;4989727;28;20050;-80
2022/01/26 09:52:01;;;;;;;37.05;17.33;;;;;;;-3.93;100.00;93746.91;4990040;28;20509;-80
2022/01/26 09:54:31;;;;;;;36.65;17.33;;;;;;;-3.92;100.00;93733.47;4989963;28;20046;-80
2022/01/26 09:57:04;;;;;;;38.63;19.23;;;;;;;-3.97;100.00;93740.50;4991676;28;20383;-80
2022/01/26 09:59:31;;;;;;;36.22;18.02;;;;;;;-3.97;100.00;93729.66;4993813;28;20054;-80
2022/01/26 10:02:00;;;;;;;38.47;20.83;;;;;;;-4.05;100.00;93710.13;4993182;28;20458;-80
2022/01/26 10:04:29;;;;;;;35.38;14.38;;;;;;;-4.19;100.00;93714.41;4993002;28;20050;-79
2022/01/26 10:07:01;;;;;;;31.67;14.38;;;;;;;-4.04;100.00;93725.06;4988513;28;20081;-80
2022/01/26 10:17:42;;;;;;;41.95;15.60;;;;;;;-3.55;100.00;93722.50;4974337;28;20331;-80
2022/01/26 10:20:14;;;;;;;35.28;15.15;;;;;;;-3.80;100.00;93709.19;4970309;28;20443;-80
2022/01/26 10:22:43;;;;;;;41.47;15.25;;;;;;;-3.37;100.00;93727.88;4970261;28;20043;-80
2022/01/26 10:25:15;;;;;;;27.20;14.43;;;;;;;-3.17;100.00;93723.13;4972534;28;20093;-80
2022/01/26 10:27:45;;;;;;;34.63;16.00;;;;;;;-3.02;100.00;93712.84;4971131;28;20060;-80
2022/01/26 10:30:14;;;;;;;30.67;13.57;;;;;;;-3.13;100.00;93708.59;4972689;28;20053;-80
2022/01/26 10:32:42;;;;;;;34.60;16.63;;;;;;;-3.22;100.00;93710.09;4973324;28;20085;-80
2022/01/26 10:35:10;;;;;;;55.50;17.63;;;;;;;-3.50;100.00;93642.59;4973276;28;20439;-80
2022/01/26 10:37:40;;;;;;;53.50;23.73;;;;;;;-2.90;100.00;93706.09;4973492;28;20062;-80
2022/01/26 10:40:12;;;;;;;42.08;20.50;;;;;;;-2.86;100.00;93698.19;4973347;28;20050;-80
2022/01/26 10:42:40;;;;;;;33.75;18.73;;;;;;;-3.19;100.00;93671.38;4970679;28;20338;-80
2022/01/26 10:45:13;;;;;;;35.20;17.95;;;;;;;-3.03;100.00;93702.00;4962706;28;20058;-80
2022/01/26 10:47:45;;;;;;;31.85;17.67;;;;;;;-3.01;100.00;93705.19;4973417;28;20051;-80
2022/01/26 10:50:45;;;;;;;27.58;14.25;;;;;;;-3.02;100.00;93711.13;4959150;28;20122;-80
2022/01/26 10:53:15;;;;;;;21.10;11.32;;;;;;;-2.83;100.00;93703.00;4973573;28;20055;-79
2022/01/26 10:55:42;;;;;;;23.35;12.57;;;;;;;-2.71;100.00;93703.81;4972154;28;20047;-80
2022/01/26 10:58:10;;;;;;;32.28;17.70;;;;;;;-2.80;100.00;93701.16;4972933;28;20050;-80
2022/01/26 11:00:39;;;;;;;22.17;13.25;;;;;;;-2.83;100.00;93700.50;4972180;28;20109;-80
2022/01/26 11:03:07;;;;;;;22.40;14.52;;;;;;;-3.11;100.00;93695.00;4973166;28;20062;-80
2022/01/26 11:05:34;;;;;;;24.75;12.93;;;;;;;-3.15;100.00;93690.34;4972705;28;20043;-80
2022/01/26 11:08:02;;;;;;;28.77;16.10;;;;;;;-3.02;100.00;93685.22;4971160;28;20046;-80
2022/01/26 11:10:34;;;;;;;28.75;18.25;;;;;;;-2.89;100.00;93695.13;4971320;28;20135;-80
2022/01/26 11:13:00;;;;;;;31.70;14.32;;;;;;;-3.07;100.00;93649.56;4970493;28;20058;-80
2022/01/26 11:15:29;;;;;;;29.05;15.57;;;;;;;-2.68;100.00;93692.72;4970617;28;20518;-79
2022/01/26 11:18:06;;;;;;;30.70;17.80;;;;;;;-2.62;100.00;93689.72;4972707;28;20072;-79
2022/01/26 11:20:48;;;;;;;34.30;19.55;;;;;;;-2.86;100.00;93664.72;4972652;28;20153;-79
2022/01/26 11:23:16;;;;;;;28.73;15.32;;;;;;;-2.82;100.00;93681.19;4971423;28;20047;-79
2022/01/26 11:25:45;;;;;;;32.53;15.65;;;;;;;-2.71;100.00;93681.19;4967594;28;20058;-80
2022/01/26 11:28:17;;;;;;;36.20;18.08;;;;;;;-2.61;100.00;93686.28;4967370;28;20055;-80
2022/01/26 11:30:46;;;;;;;48.45;25.08;;;;;;;-2.82;100.00;93656.81;4970014;28;20507;-80
2022/01/26 11:33:16;;;;;;;33.15;17.63;;;;;;;-2.68;100.00;93662.53;4968535;28;20065;-80
2022/01/26 11:35:46;;;;;;;38.67;20.35;;;;;;;-2.96;100.00;93657.88;4972124;28;20054;-80
2022/01/26 11:39:13;;;;;;;30.00;15.85;;;;;;;-2.65;100.00;93664.03;4984114;28;20051;-80
2022/01/26 11:47:06;;;;;;;24.27;12.50;;;;;;;-2.99;100.00;93672.41;4981100;28;20529;-80
2022/01/26 11:49:35;;;;;;;12.25;9.50;;;;;;;-3.06;100.00;93669.53;4968692;28;20169;-80
2022/01/26 11:52:03;;;;;;;27.13;16.92;;;;;;;-3.10;100.00;93670.69;4968950;28;20058;-80
2022/01/26 11:54:50;;;;;;;12.65;7.63;;;;;;;-3.42;100.00;93613.59;4968159;28;20106;-80
2022/01/26 11:57:19;;;;;;;15.00;8.93;;;;;;;-3.18;100.00;93642.81;4969657;28;20558;-80
2022/01/26 11:59:59;;;;;;;13.70;7.60;;;;;;;-3.25;100.00;93650.81;4969026;28;20554;-80
2022/01/26 12:02:43;;;;;;;13.15;7.72;;;;;;;-3.44;100.00;93627.97;4968650;28;20131;-79
2022/01/26 12:05:13;;;;;;;12.38;8.32;;;;;;;-3.53;100.00;93619.41;4969328;28;20582;-80
2022/01/26 12:07:47;;;;;;;16.23;10.70;;;;;;;-3.14;100.00;93664.28;4971084;28;20102;-79
2022/01/26 12:10:18;;;;;;;13.82;8.88;;;;;;;-3.09;100.00;93658.00;4971179;28;20073;-79
2022/01/26 12:12:45;;;;;;;12.95;8.27;;;;;;;-3.09;100.00;93669.78;4971405;28;20106;-79
2022/01/26 12:15:16;;;;;;;18.88;12.27;;;;;;;-3.00;100.00;93658.22;4970556;28;20101;-78
2022/01/26 12:18:02;;;;;;;20.45;12.55;;;;;;;-3.37;100.00;93641.69;4970813;28;20625;-79
2022/01/26 12:34:42;;;;;;;14.80;9.18;;;;;;;-3.00;100.00;93653.22;4969526;28;20438;-78
2022/01/26 12:37:16;;;;;;;13.18;8.02;;;;;;;-3.05;100.00;93651.06;4969825;28;20053;-78
2022/01/26 12:42:54;;;;;;;18.08;10.80;;;;;;;-3.15;100.00;93637.56;4969624;28;20057;-79
2022/01/26 12:45:22;;;;;;;15.20;10.05;;;;;;;-3.10;100.00;93602.84;4969178;28;20065;-78
2022/01/26 12:47:51;;;;;;;13.98;9.25;;;;;;;-2.79;100.00;93645.75;4969626;28;20050;-78
2022/01/26 12:50:20;;;;;;;14.93;10.05;;;;;;;-2.84;100.00;93637.75;4968813;28;20063;-78
2022/01/26 12:52:47;;;;;;;12.90;8.38;;;;;;;-2.63;100.00;93647.09;4969208;28;20808;-78
2022/01/26 12:55:22;;;;;;;18.55;12.25;;;;;;;-2.60;100.00;93637.59;4969545;28;20498;-78
2022/01/26 12:57:49;;;;;;;19.30;11.40;;;;;;;-2.25;100.00;93650.84;4972642;28;20513;-78
2022/01/26 13:00:18;;;;;;;14.80;8.45;;;;;;;-2.30;100.00;93636.09;4989288;28;20046;-78
2022/01/26 13:02:44;;;;;;;12.65;7.63;;;;;;;-2.50;100.00;93627.59;4975374;28;20046;-78